sensor_id;sensor_type;location;lat;lon;timestamp;P1;durP1;ratioP1;P2;durP2;ratioP2
9409;SDS011;4744;52.576;13.568;2024-02-14T00:02:24;12.88;;;6.13;;
9409;SDS011;4744;52.576;13.568;2024-02-14T00:04:51;10.88;;;6.53;;
9409;SDS011;4744;52.576;13.568;2024-02-14T00:07:19;12.55;;;6.95;;
9409;SDS011;4744;52.576;13.568;2024-02-14T00:09:46;11.18;;;6.47;;
9409;SDS011;4744;52.576;13.568;2024-02-14T00:12:14;11.48;;;6.53;;
9409;SDS011;4744;52.576;13.568;2024-02-14T00:14:41;14.45;;;7.18;;
9409;SDS011;4744;52.576;13.568;2024-02-14T00:17:09;11.27;;;7.05;;
9409;SDS011;4744;52.576;13.568;2024-02-14T00:19:37;12.73;;;6.82;;
9409;SDS011;4744;52.576;13.568;2024-02-14T00:22:04;12.48;;;6.65;;
9409;SDS011;4744;52.576;13.568;2024-02-14T00:24:32;11.65;;;6.25;;
9409;SDS011;4744;52.576;13.568;2024-02-14T00:27:00;13.07;;;7.32;;
9409;SDS011;4744;52.576;13.568;2024-02-14T00:29:29;12.30;;;6.93;;
9409;SDS011;4744;52.576;13.568;2024-02-14T00:31:59;13.05;;;7.72;;
9409;SDS011;4744;52.576;13.568;2024-02-14T00:34:26;11.13;;;6.95;;
9409;SDS011;4744;52.576;13.568;2024-02-14T00:36:53;14.40;;;7.10;;
9409;SDS011;4744;52.576;13.568;2024-02-14T00:39:20;11.70;;;7.03;;
9409;SDS011;4744;52.576;13.568;2024-02-14T00:41:46;13.25;;;7.15;;
9409;SDS011;4744;52.576;13.568;2024-02-14T00:44:14;13.55;;;6.57;;
9409;SDS011;4744;52.576;13.568;2024-02-14T00:46:45;12.75;;;6.63;;
9409;SDS011;4744;52.576;13.568;2024-02-14T00:49:13;15.45;;;7.18;;
9409;SDS011;4744;52.576;13.568;2024-02-14T00:51:40;10.82;;;6.90;;
9409;SDS011;4744;52.576;13.568;2024-02-14T00:54:07;12.05;;;6.57;;
9409;SDS011;4744;52.576;13.568;2024-02-14T00:56:34;10.25;;;6.43;;
9409;SDS011;4744;52.576;13.568;2024-02-14T00:59:01;11.77;;;6.57;;
9409;SDS011;4744;52.576;13.568;2024-02-14T01:01:29;12.82;;;7.43;;
9409;SDS011;4744;52.576;13.568;2024-02-14T01:03:57;12.55;;;6.97;;
9409;SDS011;4744;52.576;13.568;2024-02-14T01:06:24;11.38;;;6.78;;
9409;SDS011;4744;52.576;13.568;2024-02-14T01:08:51;13.10;;;6.95;;
9409;SDS011;4744;52.576;13.568;2024-02-14T01:11:18;11.35;;;6.88;;
9409;SDS011;4744;52.576;13.568;2024-02-14T01:13:45;10.25;;;6.18;;
9409;SDS011;4744;52.576;13.568;2024-02-14T01:16:12;13.30;;;7.05;;
9409;SDS011;4744;52.576;13.568;2024-02-14T01:18:39;14.15;;;7.05;;
9409;SDS011;4744;52.576;13.568;2024-02-14T01:21:07;11.93;;;6.40;;
9409;SDS011;4744;52.576;13.568;2024-02-14T01:23:34;10.45;;;5.95;;
9409;SDS011;4744;52.576;13.568;2024-02-14T01:26:02;11.00;;;6.32;;
9409;SDS011;4744;52.576;13.568;2024-02-14T01:28:28;12.68;;;6.78;;
9409;SDS011;4744;52.576;13.568;2024-02-14T01:30:55;10.75;;;6.88;;
9409;SDS011;4744;52.576;13.568;2024-02-14T01:33:23;11.68;;;6.43;;
9409;SDS011;4744;52.576;13.568;2024-02-14T01:35:49;18.27;;;7.80;;
9409;SDS011;4744;52.576;13.568;2024-02-14T01:38:18;10.52;;;5.95;;
9409;SDS011;4744;52.576;13.568;2024-02-14T01:40:45;11.43;;;5.97;;
9409;SDS011;4744;52.576;13.568;2024-02-14T01:43:12;11.27;;;5.95;;
9409;SDS011;4744;52.576;13.568;2024-02-14T01:45:40;12.60;;;6.63;;
9409;SDS011;4744;52.576;13.568;2024-02-14T01:48:07;9.73;;;5.75;;
9409;SDS011;4744;52.576;13.568;2024-02-14T01:50:35;11.90;;;6.25;;
9409;SDS011;4744;52.576;13.568;2024-02-14T01:53:05;10.45;;;5.75;;
9409;SDS011;4744;52.576;13.568;2024-02-14T01:55:34;10.20;;;5.65;;
9409;SDS011;4744;52.576;13.568;2024-02-14T01:58:01;11.85;;;5.88;;
9409;SDS011;4744;52.576;13.568;2024-02-14T02:00:29;10.70;;;5.90;;
9409;SDS011;4744;52.576;13.568;2024-02-14T02:02:57;8.23;;;4.82;;
9409;SDS011;4744;52.576;13.568;2024-02-14T02:05:24;15.63;;;5.28;;
9409;SDS011;4744;52.576;13.568;2024-02-14T02:07:51;10.63;;;5.15;;
9409;SDS011;4744;52.576;13.568;2024-02-14T02:10:19;10.52;;;5.35;;
9409;SDS011;4744;52.576;13.568;2024-02-14T02:12:48;11.20;;;6.00;;
9409;SDS011;4744;52.576;13.568;2024-02-14T02:15:16;9.45;;;5.00;;
9409;SDS011;4744;52.576;13.568;2024-02-14T02:17:44;7.85;;;5.07;;
9409;SDS011;4744;52.576;13.568;2024-02-14T02:20:17;9.20;;;5.03;;
9409;SDS011;4744;52.576;13.568;2024-02-14T02:22:47;10.00;;;5.45;;
9409;SDS011;4744;52.576;13.568;2024-02-14T02:25:14;8.23;;;5.40;;
9409;SDS011;4744;52.576;13.568;2024-02-14T02:27:41;11.00;;;5.78;;
9409;SDS011;4744;52.576;13.568;2024-02-14T02:30:08;11.45;;;5.57;;
9409;SDS011;4744;52.576;13.568;2024-02-14T02:32:38;8.55;;;4.75;;
9409;SDS011;4744;52.576;13.568;2024-02-14T02:35:06;7.55;;;5.30;;
9409;SDS011;4744;52.576;13.568;2024-02-14T02:37:34;8.45;;;4.90;;
9409;SDS011;4744;52.576;13.568;2024-02-14T02:40:03;7.05;;;5.25;;
9409;SDS011;4744;52.576;13.568;2024-02-14T02:42:32;10.90;;;5.82;;
9409;SDS011;4744;52.576;13.568;2024-02-14T02:44:59;8.35;;;5.40;;
9409;SDS011;4744;52.576;13.568;2024-02-14T02:47:30;11.10;;;6.47;;
9409;SDS011;4744;52.576;13.568;2024-02-14T02:49:57;10.75;;;6.20;;
9409;SDS011;4744;52.576;13.568;2024-02-14T02:52:26;11.32;;;6.40;;
9409;SDS011;4744;52.576;13.568;2024-02-14T02:54:53;8.35;;;4.93;;
9409;SDS011;4744;52.576;13.568;2024-02-14T02:57:22;8.80;;;5.63;;
9409;SDS011;4744;52.576;13.568;2024-02-14T02:59:51;10.35;;;5.32;;
9409;SDS011;4744;52.576;13.568;2024-02-14T03:02:19;9.45;;;5.53;;
9409;SDS011;4744;52.576;13.568;2024-02-14T03:04:48;10.13;;;5.18;;
9409;SDS011;4744;52.576;13.568;2024-02-14T03:07:15;8.38;;;5.03;;
9409;SDS011;4744;52.576;13.568;2024-02-14T03:09:43;9.07;;;6.20;;
9409;SDS011;4744;52.576;13.568;2024-02-14T03:12:10;10.43;;;5.60;;
9409;SDS011;4744;52.576;13.568;2024-02-14T03:14:42;10.50;;;6.05;;
9409;SDS011;4744;52.576;13.568;2024-02-14T03:17:10;9.13;;;5.88;;
9409;SDS011;4744;52.576;13.568;2024-02-14T03:19:37;10.70;;;5.50;;
9409;SDS011;4744;52.576;13.568;2024-02-14T03:22:06;9.90;;;5.78;;
9409;SDS011;4744;52.576;13.568;2024-02-14T03:24:34;11.50;;;6.70;;
9409;SDS011;4744;52.576;13.568;2024-02-14T03:27:02;9.98;;;5.60;;
9409;SDS011;4744;52.576;13.568;2024-02-14T03:29:30;10.18;;;5.32;;
9409;SDS011;4744;52.576;13.568;2024-02-14T03:31:59;11.95;;;6.60;;
9409;SDS011;4744;52.576;13.568;2024-02-14T03:34:29;8.70;;;5.72;;
9409;SDS011;4744;52.576;13.568;2024-02-14T03:36:58;9.38;;;5.45;;
9409;SDS011;4744;52.576;13.568;2024-02-14T03:39:27;10.30;;;6.53;;
9409;SDS011;4744;52.576;13.568;2024-02-14T03:41:54;12.63;;;6.43;;
9409;SDS011;4744;52.576;13.568;2024-02-14T03:44:21;13.02;;;7.00;;
9409;SDS011;4744;52.576;13.568;2024-02-14T03:46:49;12.13;;;6.97;;
9409;SDS011;4744;52.576;13.568;2024-02-14T03:49:17;14.68;;;7.72;;
9409;SDS011;4744;52.576;13.568;2024-02-14T03:51:44;12.80;;;7.28;;
9409;SDS011;4744;52.576;13.568;2024-02-14T03:54:11;8.85;;;6.03;;
9409;SDS011;4744;52.576;13.568;2024-02-14T03:56:38;13.38;;;7.03;;
9409;SDS011;4744;52.576;13.568;2024-02-14T03:59:06;11.18;;;6.90;;
9409;SDS011;4744;52.576;13.568;2024-02-14T04:01:33;11.70;;;7.03;;
9409;SDS011;4744;52.576;13.568;2024-02-14T04:04:01;12.13;;;6.40;;
9409;SDS011;4744;52.576;13.568;2024-02-14T04:06:29;11.52;;;6.25;;
9409;SDS011;4744;52.576;13.568;2024-02-14T04:08:57;15.55;;;6.88;;
9409;SDS011;4744;52.576;13.568;2024-02-14T04:11:25;11.60;;;6.75;;
9409;SDS011;4744;52.576;13.568;2024-02-14T04:13:52;11.35;;;6.35;;
9409;SDS011;4744;52.576;13.568;2024-02-14T04:16:19;9.60;;;6.00;;
9409;SDS011;4744;52.576;13.568;2024-02-14T04:18:47;10.70;;;6.40;;
9409;SDS011;4744;52.576;13.568;2024-02-14T04:21:14;11.35;;;6.97;;
9409;SDS011;4744;52.576;13.568;2024-02-14T04:23:42;12.85;;;6.40;;
9409;SDS011;4744;52.576;13.568;2024-02-14T04:26:09;12.25;;;6.38;;
9409;SDS011;4744;52.576;13.568;2024-02-14T04:28:44;13.68;;;5.97;;
9409;SDS011;4744;52.576;13.568;2024-02-14T04:31:11;13.13;;;5.95;;
9409;SDS011;4744;52.576;13.568;2024-02-14T04:33:38;13.20;;;7.57;;
9409;SDS011;4744;52.576;13.568;2024-02-14T04:36:05;13.98;;;6.80;;
9409;SDS011;4744;52.576;13.568;2024-02-14T04:38:32;12.02;;;7.60;;
9409;SDS011;4744;52.576;13.568;2024-02-14T04:41:01;13.77;;;7.82;;
9409;SDS011;4744;52.576;13.568;2024-02-14T04:43:28;12.73;;;7.15;;
9409;SDS011;4744;52.576;13.568;2024-02-14T04:45:55;19.08;;;10.30;;
9409;SDS011;4744;52.576;13.568;2024-02-14T04:48:22;9.20;;;5.85;;
9409;SDS011;4744;52.576;13.568;2024-02-14T04:50:51;9.63;;;6.38;;
9409;SDS011;4744;52.576;13.568;2024-02-14T04:53:18;10.05;;;6.35;;
9409;SDS011;4744;52.576;13.568;2024-02-14T04:55:45;9.75;;;6.25;;
9409;SDS011;4744;52.576;13.568;2024-02-14T04:58:13;11.82;;;6.45;;
9409;SDS011;4744;52.576;13.568;2024-02-14T05:00:40;11.80;;;6.68;;
9409;SDS011;4744;52.576;13.568;2024-02-14T05:03:07;12.60;;;6.30;;
9409;SDS011;4744;52.576;13.568;2024-02-14T05:05:35;10.70;;;6.72;;
9409;SDS011;4744;52.576;13.568;2024-02-14T05:08:03;8.07;;;5.72;;
9409;SDS011;4744;52.576;13.568;2024-02-14T05:10:30;7.65;;;5.78;;
9409;SDS011;4744;52.576;13.568;2024-02-14T05:12:57;13.20;;;7.10;;
9409;SDS011;4744;52.576;13.568;2024-02-14T05:15:26;11.02;;;7.22;;
9409;SDS011;4744;52.576;13.568;2024-02-14T05:17:54;13.50;;;7.07;;
9409;SDS011;4744;52.576;13.568;2024-02-14T05:20:21;10.63;;;6.68;;
9409;SDS011;4744;52.576;13.568;2024-02-14T05:22:48;12.48;;;5.85;;
9409;SDS011;4744;52.576;13.568;2024-02-14T05:25:15;8.93;;;6.43;;
9409;SDS011;4744;52.576;13.568;2024-02-14T05:27:43;9.93;;;6.43;;
9409;SDS011;4744;52.576;13.568;2024-02-14T05:30:12;10.48;;;6.25;;
9409;SDS011;4744;52.576;13.568;2024-02-14T05:32:41;8.82;;;6.13;;
9409;SDS011;4744;52.576;13.568;2024-02-14T05:35:08;13.93;;;6.47;;
9409;SDS011;4744;52.576;13.568;2024-02-14T05:37:35;11.93;;;5.50;;
9409;SDS011;4744;52.576;13.568;2024-02-14T05:40:03;11.25;;;5.97;;
9409;SDS011;4744;52.576;13.568;2024-02-14T05:42:32;8.68;;;5.70;;
9409;SDS011;4744;52.576;13.568;2024-02-14T05:44:59;12.20;;;5.93;;
9409;SDS011;4744;52.576;13.568;2024-02-14T05:49:57;9.38;;;5.07;;
9409;SDS011;4744;52.576;13.568;2024-02-14T05:52:24;11.88;;;5.57;;
9409;SDS011;4744;52.576;13.568;2024-02-14T05:54:51;12.20;;;6.00;;
9409;SDS011;4744;52.576;13.568;2024-02-14T05:57:19;9.82;;;5.50;;
9409;SDS011;4744;52.576;13.568;2024-02-14T05:59:46;10.50;;;6.43;;
9409;SDS011;4744;52.576;13.568;2024-02-14T06:02:13;11.32;;;6.28;;
9409;SDS011;4744;52.576;13.568;2024-02-14T06:04:40;9.32;;;5.45;;
9409;SDS011;4744;52.576;13.568;2024-02-14T06:07:09;10.85;;;5.97;;
9409;SDS011;4744;52.576;13.568;2024-02-14T06:09:36;12.60;;;6.53;;
9409;SDS011;4744;52.576;13.568;2024-02-14T06:12:04;10.02;;;6.13;;
9409;SDS011;4744;52.576;13.568;2024-02-14T06:14:32;10.48;;;6.25;;
9409;SDS011;4744;52.576;13.568;2024-02-14T06:17:00;7.95;;;5.30;;
9409;SDS011;4744;52.576;13.568;2024-02-14T06:19:27;9.80;;;5.78;;
9409;SDS011;4744;52.576;13.568;2024-02-14T06:21:55;12.60;;;6.53;;
9409;SDS011;4744;52.576;13.568;2024-02-14T06:24:23;13.63;;;6.22;;
9409;SDS011;4744;52.576;13.568;2024-02-14T06:26:50;10.13;;;6.03;;
9409;SDS011;4744;52.576;13.568;2024-02-14T06:29:17;12.77;;;6.20;;
9409;SDS011;4744;52.576;13.568;2024-02-14T06:31:44;10.27;;;5.78;;
9409;SDS011;4744;52.576;13.568;2024-02-14T06:34:11;8.80;;;5.32;;
9409;SDS011;4744;52.576;13.568;2024-02-14T06:36:38;8.07;;;5.22;;
9409;SDS011;4744;52.576;13.568;2024-02-14T06:39:06;11.02;;;5.00;;
9409;SDS011;4744;52.576;13.568;2024-02-14T06:41:34;8.80;;;4.93;;
9409;SDS011;4744;52.576;13.568;2024-02-14T06:44:05;9.20;;;5.80;;
9409;SDS011;4744;52.576;13.568;2024-02-14T06:46:32;10.57;;;5.22;;
9409;SDS011;4744;52.576;13.568;2024-02-14T06:49:00;7.53;;;4.43;;
9409;SDS011;4744;52.576;13.568;2024-02-14T06:51:27;9.25;;;4.90;;
9409;SDS011;4744;52.576;13.568;2024-02-14T06:53:55;9.43;;;5.03;;
9409;SDS011;4744;52.576;13.568;2024-02-14T06:56:22;9.15;;;4.97;;
9409;SDS011;4744;52.576;13.568;2024-02-14T06:58:51;10.57;;;5.38;;
9409;SDS011;4744;52.576;13.568;2024-02-14T07:01:24;8.35;;;4.50;;
9409;SDS011;4744;52.576;13.568;2024-02-14T07:03:52;10.32;;;4.90;;
9409;SDS011;4744;52.576;13.568;2024-02-14T07:06:21;8.23;;;5.07;;
9409;SDS011;4744;52.576;13.568;2024-02-14T07:08:49;9.43;;;4.78;;
9409;SDS011;4744;52.576;13.568;2024-02-14T07:11:16;12.93;;;5.50;;
9409;SDS011;4744;52.576;13.568;2024-02-14T07:13:43;8.13;;;4.65;;
9409;SDS011;4744;52.576;13.568;2024-02-14T07:16:11;11.35;;;5.05;;
9409;SDS011;4744;52.576;13.568;2024-02-14T07:18:40;7.28;;;4.78;;
9409;SDS011;4744;52.576;13.568;2024-02-14T07:21:10;7.88;;;4.10;;
9409;SDS011;4744;52.576;13.568;2024-02-14T07:23:42;10.68;;;5.28;;
9409;SDS011;4744;52.576;13.568;2024-02-14T07:26:12;8.10;;;5.00;;
9409;SDS011;4744;52.576;13.568;2024-02-14T07:28:39;8.63;;;4.55;;
9409;SDS011;4744;52.576;13.568;2024-02-14T07:31:09;10.80;;;5.47;;
9409;SDS011;4744;52.576;13.568;2024-02-14T07:33:41;9.70;;;5.00;;
9409;SDS011;4744;52.576;13.568;2024-02-14T07:36:08;6.95;;;4.97;;
9409;SDS011;4744;52.576;13.568;2024-02-14T07:38:35;9.15;;;5.05;;
9409;SDS011;4744;52.576;13.568;2024-02-14T07:41:04;8.75;;;4.75;;
9409;SDS011;4744;52.576;13.568;2024-02-14T07:45:58;4.93;;;3.92;;
9409;SDS011;4744;52.576;13.568;2024-02-14T07:48:27;6.78;;;4.10;;
9409;SDS011;4744;52.576;13.568;2024-02-14T07:50:54;7.90;;;4.18;;
9409;SDS011;4744;52.576;13.568;2024-02-14T07:53:27;6.88;;;4.68;;
9409;SDS011;4744;52.576;13.568;2024-02-14T07:55:54;7.30;;;3.63;;
9409;SDS011;4744;52.576;13.568;2024-02-14T07:58:21;11.93;;;4.88;;
9409;SDS011;4744;52.576;13.568;2024-02-14T08:00:48;9.05;;;4.28;;
9409;SDS011;4744;52.576;13.568;2024-02-14T08:03:15;7.07;;;3.97;;
9409;SDS011;4744;52.576;13.568;2024-02-14T08:05:44;6.95;;;4.50;;
9409;SDS011;4744;52.576;13.568;2024-02-14T08:08:11;6.68;;;4.10;;
9409;SDS011;4744;52.576;13.568;2024-02-14T08:10:37;9.85;;;4.35;;
9409;SDS011;4744;52.576;13.568;2024-02-14T08:13:04;7.00;;;4.57;;
9409;SDS011;4744;52.576;13.568;2024-02-14T08:15:32;7.60;;;3.95;;
9409;SDS011;4744;52.576;13.568;2024-02-14T08:17:59;7.43;;;4.28;;
9409;SDS011;4744;52.576;13.568;2024-02-14T08:20:26;8.05;;;4.47;;
9409;SDS011;4744;52.576;13.568;2024-02-14T08:22:55;6.93;;;3.60;;
9409;SDS011;4744;52.576;13.568;2024-02-14T08:25:22;6.97;;;4.00;;
9409;SDS011;4744;52.576;13.568;2024-02-14T08:27:50;10.30;;;4.07;;
9409;SDS011;4744;52.576;13.568;2024-02-14T08:30:17;8.15;;;4.65;;
9409;SDS011;4744;52.576;13.568;2024-02-14T08:32:44;8.55;;;4.00;;
9409;SDS011;4744;52.576;13.568;2024-02-14T08:35:12;7.07;;;4.25;;
9409;SDS011;4744;52.576;13.568;2024-02-14T08:37:40;7.95;;;4.07;;
9409;SDS011;4744;52.576;13.568;2024-02-14T08:40:09;6.88;;;4.13;;
9409;SDS011;4744;52.576;13.568;2024-02-14T08:42:37;7.03;;;4.00;;
9409;SDS011;4744;52.576;13.568;2024-02-14T08:45:05;8.07;;;3.95;;
9409;SDS011;4744;52.576;13.568;2024-02-14T08:47:33;6.97;;;4.65;;
9409;SDS011;4744;52.576;13.568;2024-02-14T08:50:01;5.82;;;3.92;;
9409;SDS011;4744;52.576;13.568;2024-02-14T08:52:29;6.43;;;3.97;;
9409;SDS011;4744;52.576;13.568;2024-02-14T08:57:26;6.93;;;3.90;;
9409;SDS011;4744;52.576;13.568;2024-02-14T08:59:53;6.88;;;4.07;;
9409;SDS011;4744;52.576;13.568;2024-02-14T09:02:21;6.57;;;3.85;;
9409;SDS011;4744;52.576;13.568;2024-02-14T09:04:52;5.72;;;3.40;;
9409;SDS011;4744;52.576;13.568;2024-02-14T09:07:19;6.10;;;3.70;;
9409;SDS011;4744;52.576;13.568;2024-02-14T09:09:46;5.57;;;3.70;;
9409;SDS011;4744;52.576;13.568;2024-02-14T09:12:13;7.47;;;4.20;;
9409;SDS011;4744;52.576;13.568;2024-02-14T09:14:41;5.72;;;3.90;;
9409;SDS011;4744;52.576;13.568;2024-02-14T09:17:08;7.00;;;4.05;;
9409;SDS011;4744;52.576;13.568;2024-02-14T09:19:35;19.60;;;3.88;;
9409;SDS011;4744;52.576;13.568;2024-02-14T09:22:03;11.10;;;3.92;;
9409;SDS011;4744;52.576;13.568;2024-02-14T09:24:31;6.07;;;4.13;;
9409;SDS011;4744;52.576;13.568;2024-02-14T09:26:59;5.88;;;3.75;;
9409;SDS011;4744;52.576;13.568;2024-02-14T09:29:27;4.75;;;3.08;;
9409;SDS011;4744;52.576;13.568;2024-02-14T09:31:55;8.27;;;4.20;;
9409;SDS011;4744;52.576;13.568;2024-02-14T09:34:22;5.32;;;3.53;;
9409;SDS011;4744;52.576;13.568;2024-02-14T09:36:50;6.78;;;3.90;;
9409;SDS011;4744;52.576;13.568;2024-02-14T09:39:18;5.53;;;3.60;;
9409;SDS011;4744;52.576;13.568;2024-02-14T09:41:46;6.15;;;3.47;;
9409;SDS011;4744;52.576;13.568;2024-02-14T09:44:17;7.57;;;3.92;;
9409;SDS011;4744;52.576;13.568;2024-02-14T09:46:44;6.20;;;3.80;;
9409;SDS011;4744;52.576;13.568;2024-02-14T09:49:14;10.15;;;4.25;;
9409;SDS011;4744;52.576;13.568;2024-02-14T09:51:43;9.93;;;4.07;;
9409;SDS011;4744;52.576;13.568;2024-02-14T09:54:10;9.50;;;4.28;;
9409;SDS011;4744;52.576;13.568;2024-02-14T09:56:39;7.53;;;3.72;;
9409;SDS011;4744;52.576;13.568;2024-02-14T09:59:05;8.50;;;3.85;;
9409;SDS011;4744;52.576;13.568;2024-02-14T10:01:33;10.90;;;3.75;;
9409;SDS011;4744;52.576;13.568;2024-02-14T10:04:00;8.05;;;3.83;;
9409;SDS011;4744;52.576;13.568;2024-02-14T10:06:29;8.48;;;3.92;;
9409;SDS011;4744;52.576;13.568;2024-02-14T10:08:56;8.95;;;4.15;;
9409;SDS011;4744;52.576;13.568;2024-02-14T10:11:23;6.97;;;3.70;;
9409;SDS011;4744;52.576;13.568;2024-02-14T10:13:52;4.47;;;3.38;;
9409;SDS011;4744;52.576;13.568;2024-02-14T10:16:25;7.63;;;3.90;;
9409;SDS011;4744;52.576;13.568;2024-02-14T10:18:52;5.68;;;3.55;;
9409;SDS011;4744;52.576;13.568;2024-02-14T10:21:19;7.60;;;4.00;;
9409;SDS011;4744;52.576;13.568;2024-02-14T10:23:49;5.93;;;3.50;;
9409;SDS011;4744;52.576;13.568;2024-02-14T10:26:18;6.50;;;3.55;;
9409;SDS011;4744;52.576;13.568;2024-02-14T10:28:45;8.23;;;4.47;;
9409;SDS011;4744;52.576;13.568;2024-02-14T10:31:12;8.93;;;4.03;;
9409;SDS011;4744;52.576;13.568;2024-02-14T10:33:40;5.20;;;3.90;;
9409;SDS011;4744;52.576;13.568;2024-02-14T10:36:08;5.50;;;3.70;;
9409;SDS011;4744;52.576;13.568;2024-02-14T10:38:38;7.22;;;3.30;;
9409;SDS011;4744;52.576;13.568;2024-02-14T10:41:07;5.72;;;3.47;;
9409;SDS011;4744;52.576;13.568;2024-02-14T10:43:37;4.97;;;3.40;;
9409;SDS011;4744;52.576;13.568;2024-02-14T10:46:07;6.03;;;3.15;;
9409;SDS011;4744;52.576;13.568;2024-02-14T10:48:39;5.82;;;2.92;;
9409;SDS011;4744;52.576;13.568;2024-02-14T10:51:06;7.28;;;3.08;;
9409;SDS011;4744;52.576;13.568;2024-02-14T10:53:35;7.82;;;3.85;;
9409;SDS011;4744;52.576;13.568;2024-02-14T10:56:11;4.03;;;2.80;;
9409;SDS011;4744;52.576;13.568;2024-02-14T10:58:42;4.50;;;2.60;;
9409;SDS011;4744;52.576;13.568;2024-02-14T11:03:40;4.22;;;2.70;;
9409;SDS011;4744;52.576;13.568;2024-02-14T11:06:07;4.70;;;3.40;;
9409;SDS011;4744;52.576;13.568;2024-02-14T11:08:36;5.25;;;3.35;;
9409;SDS011;4744;52.576;13.568;2024-02-14T11:11:05;5.95;;;3.30;;
9409;SDS011;4744;52.576;13.568;2024-02-14T11:13:35;5.30;;;2.80;;
9409;SDS011;4744;52.576;13.568;2024-02-14T11:16:02;7.60;;;2.75;;
9409;SDS011;4744;52.576;13.568;2024-02-14T11:18:30;6.18;;;3.22;;
9409;SDS011;4744;52.576;13.568;2024-02-14T11:20:58;4.25;;;2.83;;
9409;SDS011;4744;52.576;13.568;2024-02-14T11:23:25;6.68;;;2.92;;
9409;SDS011;4744;52.576;13.568;2024-02-14T11:25:59;6.40;;;3.15;;
9409;SDS011;4744;52.576;13.568;2024-02-14T11:28:27;4.68;;;3.33;;
9409;SDS011;4744;52.576;13.568;2024-02-14T11:30:59;4.95;;;3.15;;
9409;SDS011;4744;52.576;13.568;2024-02-14T11:33:28;5.18;;;3.35;;
9409;SDS011;4744;52.576;13.568;2024-02-14T11:35:56;5.78;;;2.95;;
9409;SDS011;4744;52.576;13.568;2024-02-14T11:38:24;5.82;;;2.83;;
9409;SDS011;4744;52.576;13.568;2024-02-14T11:40:53;5.90;;;3.38;;
9409;SDS011;4744;52.576;13.568;2024-02-14T11:43:22;5.82;;;3.95;;
9409;SDS011;4744;52.576;13.568;2024-02-14T11:45:49;4.38;;;3.22;;
9409;SDS011;4744;52.576;13.568;2024-02-14T11:48:18;4.60;;;3.30;;
9409;SDS011;4744;52.576;13.568;2024-02-14T11:50:46;5.90;;;3.20;;
9409;SDS011;4744;52.576;13.568;2024-02-14T11:53:14;7.50;;;3.10;;
9409;SDS011;4744;52.576;13.568;2024-02-14T11:55:43;7.80;;;3.20;;
9409;SDS011;4744;52.576;13.568;2024-02-14T11:58:12;4.97;;;3.17;;
9409;SDS011;4744;52.576;13.568;2024-02-14T12:00:39;4.47;;;3.10;;
9409;SDS011;4744;52.576;13.568;2024-02-14T12:03:07;5.72;;;3.45;;
9409;SDS011;4744;52.576;13.568;2024-02-14T12:05:37;6.88;;;3.70;;
9409;SDS011;4744;52.576;13.568;2024-02-14T12:08:05;6.22;;;3.78;;
9409;SDS011;4744;52.576;13.568;2024-02-14T12:10:35;7.40;;;4.03;;
9409;SDS011;4744;52.576;13.568;2024-02-14T12:13:12;5.38;;;3.88;;
9409;SDS011;4744;52.576;13.568;2024-02-14T12:15:40;4.93;;;3.20;;
9409;SDS011;4744;52.576;13.568;2024-02-14T12:18:07;9.20;;;3.83;;
9409;SDS011;4744;52.576;13.568;2024-02-14T12:20:35;5.25;;;3.83;;
9409;SDS011;4744;52.576;13.568;2024-02-14T12:23:04;4.68;;;3.35;;
9409;SDS011;4744;52.576;13.568;2024-02-14T12:25:32;4.70;;;3.35;;
9409;SDS011;4744;52.576;13.568;2024-02-14T12:27:59;7.18;;;3.60;;
9409;SDS011;4744;52.576;13.568;2024-02-14T12:30:28;6.55;;;3.80;;
9409;SDS011;4744;52.576;13.568;2024-02-14T12:33:10;4.55;;;3.70;;
9409;SDS011;4744;52.576;13.568;2024-02-14T12:35:40;6.68;;;3.22;;
9409;SDS011;4744;52.576;13.568;2024-02-14T12:38:10;9.05;;;3.97;;
9409;SDS011;4744;52.576;13.568;2024-02-14T12:40:37;7.47;;;3.75;;
9409;SDS011;4744;52.576;13.568;2024-02-14T12:43:06;7.47;;;3.85;;
9409;SDS011;4744;52.576;13.568;2024-02-14T12:45:33;5.55;;;4.10;;
9409;SDS011;4744;52.576;13.568;2024-02-14T12:48:00;6.72;;;3.75;;
9409;SDS011;4744;52.576;13.568;2024-02-14T12:50:27;5.38;;;4.07;;
9409;SDS011;4744;52.576;13.568;2024-02-14T12:52:54;6.47;;;3.70;;
9409;SDS011;4744;52.576;13.568;2024-02-14T12:55:23;5.40;;;3.90;;
9409;SDS011;4744;52.576;13.568;2024-02-14T12:57:50;7.53;;;4.65;;
9409;SDS011;4744;52.576;13.568;2024-02-14T13:00:18;6.65;;;4.20;;
9409;SDS011;4744;52.576;13.568;2024-02-14T13:02:46;7.75;;;4.68;;
9409;SDS011;4744;52.576;13.568;2024-02-14T13:05:13;6.75;;;4.35;;
9409;SDS011;4744;52.576;13.568;2024-02-14T13:07:40;7.57;;;4.20;;
9409;SDS011;4744;52.576;13.568;2024-02-14T13:10:07;8.18;;;3.83;;
9409;SDS011;4744;52.576;13.568;2024-02-14T13:12:36;7.32;;;4.28;;
9409;SDS011;4744;52.576;13.568;2024-02-14T13:15:04;9.23;;;4.57;;
9409;SDS011;4744;52.576;13.568;2024-02-14T13:17:32;7.55;;;4.18;;
9409;SDS011;4744;52.576;13.568;2024-02-14T13:19:59;7.63;;;4.28;;
9409;SDS011;4744;52.576;13.568;2024-02-14T13:22:26;6.05;;;4.40;;
9409;SDS011;4744;52.576;13.568;2024-02-14T13:24:53;5.97;;;3.95;;
9409;SDS011;4744;52.576;13.568;2024-02-14T13:27:21;6.40;;;4.43;;
9409;SDS011;4744;52.576;13.568;2024-02-14T13:29:49;7.88;;;4.18;;
9409;SDS011;4744;52.576;13.568;2024-02-14T13:32:16;10.88;;;4.80;;
9409;SDS011;4744;52.576;13.568;2024-02-14T13:34:43;6.07;;;3.70;;
9409;SDS011;4744;52.576;13.568;2024-02-14T13:37:10;6.20;;;4.05;;
9409;SDS011;4744;52.576;13.568;2024-02-14T13:39:37;8.60;;;4.47;;
9409;SDS011;4744;52.576;13.568;2024-02-14T13:42:04;8.23;;;4.20;;
9409;SDS011;4744;52.576;13.568;2024-02-14T13:44:32;7.95;;;4.05;;
9409;SDS011;4744;52.576;13.568;2024-02-14T13:47:01;9.90;;;4.82;;
9409;SDS011;4744;52.576;13.568;2024-02-14T13:49:28;9.80;;;4.25;;
9409;SDS011;4744;52.576;13.568;2024-02-14T13:51:54;7.88;;;4.93;;
9409;SDS011;4744;52.576;13.568;2024-02-14T13:54:23;11.52;;;5.20;;
9409;SDS011;4744;52.576;13.568;2024-02-14T13:56:50;6.75;;;4.50;;
9409;SDS011;4744;52.576;13.568;2024-02-14T13:59:17;7.13;;;4.80;;
9409;SDS011;4744;52.576;13.568;2024-02-14T14:01:45;18.48;;;5.38;;
9409;SDS011;4744;52.576;13.568;2024-02-14T14:04:14;10.27;;;5.30;;
9409;SDS011;4744;52.576;13.568;2024-02-14T14:06:41;7.88;;;4.57;;
9409;SDS011;4744;52.576;13.568;2024-02-14T14:09:08;10.98;;;5.00;;
9409;SDS011;4744;52.576;13.568;2024-02-14T14:11:35;9.15;;;4.88;;
9409;SDS011;4744;52.576;13.568;2024-02-14T14:14:02;9.05;;;4.78;;
9409;SDS011;4744;52.576;13.568;2024-02-14T14:16:29;6.95;;;5.00;;
9409;SDS011;4744;52.576;13.568;2024-02-14T14:18:58;9.07;;;5.40;;
9409;SDS011;4744;52.576;13.568;2024-02-14T14:21:26;9.82;;;5.50;;
9409;SDS011;4744;52.576;13.568;2024-02-14T14:23:53;9.60;;;5.93;;
9409;SDS011;4744;52.576;13.568;2024-02-14T14:26:20;9.48;;;5.72;;
9409;SDS011;4744;52.576;13.568;2024-02-14T14:28:47;11.18;;;5.93;;
9409;SDS011;4744;52.576;13.568;2024-02-14T14:31:14;8.93;;;5.22;;
9409;SDS011;4744;52.576;13.568;2024-02-14T14:33:41;12.30;;;6.70;;
9409;SDS011;4744;52.576;13.568;2024-02-14T14:36:08;11.95;;;5.97;;
9409;SDS011;4744;52.576;13.568;2024-02-14T14:38:36;8.30;;;5.82;;
9409;SDS011;4744;52.576;13.568;2024-02-14T14:41:05;13.60;;;5.70;;
9409;SDS011;4744;52.576;13.568;2024-02-14T14:43:32;9.63;;;5.90;;
9409;SDS011;4744;52.576;13.568;2024-02-14T14:45:59;13.60;;;6.53;;
9409;SDS011;4744;52.576;13.568;2024-02-14T14:48:26;9.52;;;6.10;;
9409;SDS011;4744;52.576;13.568;2024-02-14T14:50:53;9.30;;;6.07;;
9409;SDS011;4744;52.576;13.568;2024-02-14T14:53:20;9.05;;;6.03;;
9409;SDS011;4744;52.576;13.568;2024-02-14T14:55:53;10.63;;;5.93;;
9409;SDS011;4744;52.576;13.568;2024-02-14T14:58:22;8.38;;;5.68;;
9409;SDS011;4744;52.576;13.568;2024-02-14T15:00:49;8.88;;;6.28;;
9409;SDS011;4744;52.576;13.568;2024-02-14T15:03:21;9.50;;;6.20;;
9409;SDS011;4744;52.576;13.568;2024-02-14T15:05:48;8.18;;;5.97;;
9409;SDS011;4744;52.576;13.568;2024-02-14T15:08:18;8.32;;;5.85;;
9409;SDS011;4744;52.576;13.568;2024-02-14T15:10:50;8.30;;;6.07;;